createdAt,value
2022-12-23T00:00:29.657Z,113.37
2022-12-23T00:02:56.825Z,116.57
2022-12-23T00:05:23.873Z,113.53
2022-12-23T00:07:50.731Z,112.00
2022-12-23T00:10:17.610Z,123.90
2022-12-23T00:13:03.125Z,125.87
2022-12-23T00:15:30.071Z,126.30
2022-12-23T00:17:56.919Z,130.57
2022-12-23T00:20:23.885Z,125.40
2022-12-23T00:23:06.218Z,124.10
2022-12-23T00:25:42.047Z,120.93
2022-12-23T00:28:15.043Z,118.73
2022-12-23T00:30:50.412Z,117.87
2022-12-23T00:33:20.347Z,139.70
2022-12-23T00:35:47.836Z,126.03
2022-12-23T00:38:15.309Z,123.43
2022-12-23T00:41:00.643Z,123.57
2022-12-23T00:43:27.902Z,115.67
2022-12-23T00:45:55.148Z,118.00
2022-12-23T00:48:41.480Z,120.63
2022-12-23T00:51:08.741Z,117.33
2022-12-23T00:53:35.543Z,122.90
2022-12-23T00:56:03.060Z,122.23
2022-12-23T00:58:32.034Z,118.70
2022-12-23T01:01:18.368Z,113.43
2022-12-23T01:04:04.212Z,111.43
2022-12-23T01:06:31.750Z,105.13
2022-12-23T01:08:58.545Z,116.23
2022-12-23T01:11:25.645Z,115.50
2022-12-23T01:13:52.674Z,112.13
2022-12-23T01:16:19.839Z,113.30
2022-12-23T01:18:46.714Z,114.37
2022-12-23T01:21:14.551Z,112.13
2022-12-23T01:23:41.541Z,109.03
2022-12-23T01:26:09.607Z,108.30
2022-12-23T01:28:37.702Z,106.40
2022-12-23T01:31:11.196Z,108.93
2022-12-23T01:33:39.276Z,99.00
2022-12-23T01:36:08.024Z,106.03
2022-12-23T01:38:35.466Z,103.33
2022-12-23T01:41:03.102Z,109.53
2022-12-23T01:43:50.810Z,109.77
2022-12-23T01:46:18.991Z,105.03
2022-12-23T01:48:51.317Z,100.10
2022-12-23T01:51:29.956Z,109.57
2022-12-23T01:54:01.437Z,110.80
2022-12-23T01:56:35.590Z,110.23
2022-12-23T01:59:32.134Z,54.83
2022-12-23T02:02:17.699Z,104.23
2022-12-23T02:04:45.004Z,108.43
2022-12-23T02:07:31.874Z,109.00
2022-12-23T02:09:59.134Z,111.43
2022-12-23T02:12:47.358Z,107.53
2022-12-23T02:15:50.978Z,114.70
2022-12-23T02:18:47.536Z,116.60
2022-12-23T02:21:24.827Z,126.03
2022-12-23T02:24:10.538Z,131.43
2022-12-23T02:26:40.500Z,131.67
2022-12-23T02:29:35.344Z,134.83
2022-12-23T02:32:13.249Z,142.33
2022-12-23T02:34:58.648Z,125.07
2022-12-23T02:37:45.677Z,130.00
2022-12-23T02:40:34.034Z,128.07
2022-12-23T02:43:12.758Z,125.77
2022-12-23T02:45:49.382Z,132.47
2022-12-23T02:48:23.593Z,107.50
2022-12-23T02:50:53.586Z,114.37
2022-12-23T02:53:33.967Z,110.03
2022-12-23T02:56:03.811Z,111.33
2022-12-23T02:58:41.667Z,119.00
2022-12-23T03:01:11.416Z,117.27
2022-12-23T03:03:40.340Z,116.03
2022-12-23T03:06:19.824Z,104.30
2022-12-23T03:08:49.076Z,106.20
2022-12-23T03:11:17.455Z,101.43
2022-12-23T03:13:59.530Z,117.87
2022-12-23T03:17:03.991Z,122.27
2022-12-23T03:19:34.036Z,123.80
2022-12-23T03:22:19.400Z,124.17
2022-12-23T03:25:18.912Z,124.87
2022-12-23T03:27:58.923Z,118.43
2022-12-23T03:30:27.286Z,118.27
2022-12-23T03:33:02.918Z,110.37
2022-12-23T03:35:33.394Z,112.43
2022-12-23T03:38:03.190Z,120.03
2022-12-23T03:40:43.798Z,118.93
2022-12-23T03:43:30.142Z,120.17
2022-12-23T03:46:01.629Z,117.63
2022-12-23T03:48:50.622Z,120.33
2022-12-23T03:51:22.213Z,117.27
2022-12-23T03:53:54.622Z,104.03
2022-12-23T03:56:31.267Z,97.77
2022-12-23T03:59:01.573Z,90.00
2022-12-23T04:01:37.698Z,98.43
2022-12-23T04:04:27.788Z,96.97
2022-12-23T04:07:10.392Z,98.93
2022-12-23T04:09:38.498Z,79.33
2022-12-23T04:12:05.843Z,96.53
2022-12-23T04:14:35.578Z,98.40
2022-12-23T04:17:02.834Z,96.27
2022-12-23T04:19:29.677Z,69.33
2022-12-23T04:21:59.082Z,89.70
2022-12-23T04:24:25.944Z,101.60
2022-12-23T04:26:52.852Z,106.47
2022-12-23T04:29:19.736Z,101.73
2022-12-23T04:31:46.595Z,101.33
2022-12-23T04:34:13.662Z,98.60
2022-12-23T04:36:40.576Z,104.73
2022-12-23T04:39:07.371Z,99.17
2022-12-23T04:41:34.226Z,98.53
2022-12-23T04:44:01.171Z,95.13
2022-12-23T04:46:28.024Z,97.80
2022-12-23T04:48:54.931Z,101.80
2022-12-23T04:51:21.822Z,106.87
2022-12-23T04:53:48.755Z,109.60
2022-12-23T04:56:15.664Z,107.80
2022-12-23T04:58:42.584Z,106.67
2022-12-23T05:01:11.909Z,105.40
2022-12-23T05:03:39.907Z,91.50
2022-12-23T05:06:07.290Z,105.27
2022-12-23T05:08:34.882Z,109.67
2022-12-23T05:11:01.994Z,112.27
2022-12-23T05:13:28.781Z,104.27
2022-12-23T05:15:56.080Z,110.40
2022-12-23T05:18:23.046Z,106.30
2022-12-23T05:20:50.431Z,100.07
2022-12-23T05:23:17.276Z,109.87
2022-12-23T05:25:44.285Z,109.07
2022-12-23T05:28:11.149Z,104.13
2022-12-23T05:30:38.023Z,105.23
2022-12-23T05:33:05.019Z,105.47
2022-12-23T05:35:31.893Z,106.17
2022-12-23T05:37:58.718Z,100.27
2022-12-23T05:40:30.408Z,99.30
2022-12-23T05:43:00.122Z,96.70
2022-12-23T05:45:27.050Z,102.43
2022-12-23T05:47:53.895Z,97.37
2022-12-23T05:50:20.821Z,95.27
2022-12-23T05:52:48.769Z,96.77
2022-12-23T05:55:15.774Z,96.67
2022-12-23T05:57:42.628Z,96.93
2022-12-23T06:02:40.429Z,97.43
2022-12-23T06:05:07.923Z,105.47
2022-12-23T06:07:34.892Z,88.43
2022-12-23T06:10:01.750Z,96.50
2022-12-23T06:12:28.663Z,107.20
2022-12-23T06:14:55.627Z,103.80
2022-12-23T06:17:23.090Z,104.33
2022-12-23T06:19:50.223Z,103.30
2022-12-23T06:22:17.981Z,102.60
2022-12-23T06:24:45.066Z,97.07
2022-12-23T06:27:11.887Z,88.93
2022-12-23T06:29:38.796Z,100.70
2022-12-23T06:32:05.914Z,104.70
2022-12-23T06:34:32.906Z,59.47
2022-12-23T06:36:59.949Z,98.80
2022-12-23T06:39:27.588Z,99.03
2022-12-23T06:41:54.437Z,102.37
2022-12-23T06:44:21.353Z,101.50
2022-12-23T06:46:48.178Z,100.27
2022-12-23T06:49:15.034Z,103.83
2022-12-23T06:51:42.135Z,101.97
2022-12-23T06:54:12.039Z,104.63
2022-12-23T06:56:39.764Z,104.83
2022-12-23T06:59:06.673Z,105.87
2022-12-23T07:01:33.952Z,103.73
2022-12-23T07:04:02.000Z,103.60
2022-12-23T07:06:29.224Z,108.70
2022-12-23T07:08:56.110Z,101.30
2022-12-23T07:11:22.969Z,98.20
2022-12-23T07:13:49.815Z,105.77
2022-12-23T07:18:43.538Z,102.67
2022-12-23T07:21:21.423Z,101.80
2022-12-23T07:23:51.747Z,103.47
2022-12-23T07:26:18.538Z,104.23
2022-12-23T07:28:47.885Z,106.00
2022-12-23T07:31:15.657Z,103.33
2022-12-23T07:33:43.251Z,67.80
2022-12-23T07:36:10.162Z,107.83
2022-12-23T07:38:37.983Z,109.57
2022-12-23T07:41:04.974Z,106.83
2022-12-23T07:43:32.154Z,114.07
2022-12-23T07:46:00.968Z,106.40
2022-12-23T07:48:28.351Z,107.73
2022-12-23T07:51:01.925Z,99.57
2022-12-23T07:53:29.215Z,114.10
2022-12-23T07:55:57.088Z,114.10
2022-12-23T07:58:25.259Z,118.20
2022-12-23T08:00:59.640Z,111.53
2022-12-23T08:03:27.092Z,109.23
2022-12-23T08:06:08.786Z,112.67
2022-12-23T08:08:36.876Z,117.37
2022-12-23T08:11:05.946Z,115.67
2022-12-23T08:13:37.637Z,112.20
2022-12-23T08:16:06.389Z,79.07
2022-12-23T08:18:39.708Z,66.17
2022-12-23T08:21:19.506Z,110.77
2022-12-23T08:23:48.307Z,114.30
2022-12-23T08:26:24.057Z,120.57
2022-12-23T08:28:53.767Z,118.57
2022-12-23T08:31:25.752Z,117.57
2022-12-23T08:33:56.251Z,116.53
2022-12-23T08:36:27.367Z,119.73
2022-12-23T08:38:57.416Z,119.40
2022-12-23T08:41:30.976Z,112.13
2022-12-23T08:43:58.548Z,118.13
2022-12-23T08:46:26.176Z,116.13
2022-12-23T08:48:54.192Z,114.10
2022-12-23T08:51:22.970Z,114.97
2022-12-23T08:53:54.906Z,116.23
2022-12-23T08:56:28.330Z,113.90
2022-12-23T08:58:56.328Z,120.60
2022-12-23T09:01:29.733Z,121.07
2022-12-23T09:03:57.400Z,116.53
2022-12-23T09:06:29.876Z,116.23
2022-12-23T09:08:58.894Z,125.33
2022-12-23T09:11:28.087Z,126.83
2022-12-23T09:13:56.622Z,126.13
2022-12-23T09:16:24.143Z,121.43
2022-12-23T09:18:51.329Z,121.70
2022-12-23T09:21:20.734Z,124.40
2022-12-23T09:23:48.939Z,123.60
2022-12-23T09:26:24.555Z,124.20
2022-12-23T09:28:53.049Z,123.32
2022-12-23T09:31:21.259Z,121.90
2022-12-23T09:33:50.424Z,116.37
2022-12-23T09:36:18.292Z,117.50
2022-12-23T09:38:45.678Z,104.83
2022-12-23T09:41:36.756Z,126.67
2022-12-23T09:44:22.438Z,127.47
2022-12-23T09:46:58.628Z,131.90
2022-12-23T09:49:26.219Z,129.77
2022-12-23T09:51:58.235Z,130.17
2022-12-23T09:54:32.554Z,129.03
2022-12-23T09:57:21.182Z,132.30
2022-12-23T09:59:55.104Z,96.47
2022-12-23T10:02:40.484Z,132.67
2022-12-23T10:05:38.781Z,131.80
2022-12-23T10:08:21.550Z,131.05
2022-12-23T10:10:54.508Z,127.47
2022-12-23T10:13:38.158Z,127.13
2022-12-23T10:16:15.873Z,130.63
2022-12-23T10:18:58.179Z,123.93
2022-12-23T10:21:49.313Z,128.57
2022-12-23T10:24:28.159Z,126.73
2022-12-23T10:26:59.711Z,129.10
2022-12-23T10:29:32.378Z,124.70
2022-12-23T10:32:11.982Z,129.50
2022-12-23T10:34:55.106Z,105.13
2022-12-23T10:37:48.746Z,141.17
2022-12-23T10:40:25.612Z,112.90
2022-12-23T10:43:29.131Z,142.85
2022-12-23T10:46:27.162Z,141.50
2022-12-23T10:49:12.422Z,111.03
2022-12-23T10:51:55.427Z,133.30
2022-12-23T10:54:36.493Z,138.17
2022-12-23T10:57:05.807Z,140.30
2022-12-23T10:59:35.463Z,143.20
2022-12-23T11:02:06.614Z,145.20
2022-12-23T11:04:38.669Z,139.60
2022-12-23T11:07:42.840Z,136.10
2022-12-23T11:10:13.682Z,142.73
2022-12-23T11:12:43.103Z,143.07
2022-12-23T11:15:30.072Z,137.60
2022-12-23T11:18:03.037Z,134.63
2022-12-23T11:20:30.895Z,106.73
2022-12-23T11:23:02.116Z,135.90
2022-12-23T11:25:38.121Z,139.70
2022-12-23T11:28:10.848Z,151.53
2022-12-23T11:31:05.698Z,143.50
2022-12-23T11:33:35.480Z,131.00
2022-12-23T11:36:08.013Z,137.17
2022-12-23T11:38:38.100Z,141.70
2022-12-23T11:41:05.961Z,146.77
2022-12-23T11:43:34.073Z,138.43
2022-12-23T11:46:16.855Z,129.50
2022-12-23T11:48:43.795Z,142.77
2022-12-23T11:51:10.649Z,142.80
2022-12-23T11:53:43.171Z,139.43
2022-12-23T11:56:14.679Z,126.17
2022-12-23T11:58:53.514Z,133.83
2022-12-23T12:01:23.704Z,125.30
2022-12-23T12:03:56.281Z,138.20
2022-12-23T12:06:23.894Z,136.50
2022-12-23T12:08:53.557Z,132.60
2022-12-23T12:11:52.024Z,130.30
2022-12-23T12:14:27.033Z,131.90
2022-12-23T12:17:14.926Z,127.87
2022-12-23T12:20:02.169Z,121.37
2022-12-23T12:23:04.171Z,122.88
2022-12-23T12:26:29.997Z,116.03
2022-12-23T12:29:21.130Z,115.20
2022-12-23T12:31:51.470Z,109.83
2022-12-23T12:34:59.615Z,113.85
2022-12-23T12:37:45.139Z,112.53
2022-12-23T12:40:36.620Z,104.10
2022-12-23T12:43:58.889Z,104.60
2022-12-23T12:46:38.497Z,96.57
2022-12-23T12:49:35.477Z,97.80
2022-12-23T12:52:24.855Z,88.75
2022-12-23T12:54:54.751Z,88.18
2022-12-23T12:57:23.872Z,86.22
2022-12-23T12:59:58.532Z,84.43
2022-12-23T13:02:56.164Z,87.18
2022-12-23T13:05:56.343Z,88.55
2022-12-23T13:08:46.573Z,80.55
2022-12-23T13:11:28.575Z,79.93
2022-12-23T13:14:13.215Z,81.25
2022-12-23T13:17:08.395Z,78.03
2022-12-23T13:19:50.082Z,77.97
2022-12-23T13:22:24.325Z,77.65
2022-12-23T13:25:05.653Z,74.90
2022-12-23T13:27:35.418Z,75.18
2022-12-23T13:30:18.068Z,80.60
2022-12-23T13:33:02.331Z,80.50
2022-12-23T13:35:34.824Z,84.65
2022-12-23T13:38:31.998Z,80.75
2022-12-23T13:41:10.222Z,79.38
2022-12-23T13:43:49.434Z,80.95
2022-12-23T13:46:25.608Z,80.32
2022-12-23T13:49:21.422Z,75.25
2022-12-23T13:52:21.648Z,71.30
2022-12-23T13:55:00.349Z,71.68
2022-12-23T13:58:01.189Z,74.95
2022-12-23T14:00:31.356Z,74.28
2022-12-23T14:02:58.333Z,78.43
2022-12-23T14:05:34.139Z,78.15
2022-12-23T14:08:07.251Z,77.70
2022-12-23T14:10:35.813Z,77.20
2022-12-23T14:13:09.067Z,74.07
2022-12-23T14:15:58.410Z,82.38
2022-12-23T14:18:31.005Z,77.63
2022-12-23T14:21:18.652Z,81.57
2022-12-23T14:24:07.141Z,80.82
2022-12-23T14:27:05.999Z,76.45
2022-12-23T14:29:45.754Z,77.10
2022-12-23T14:32:30.471Z,79.03
2022-12-23T14:35:21.919Z,92.75
2022-12-23T14:38:16.942Z,94.22
2022-12-23T14:40:49.109Z,79.97
2022-12-23T14:43:22.080Z,77.47
2022-12-23T14:46:18.030Z,81.15
2022-12-23T14:48:44.829Z,90.25
2022-12-23T14:53:53.908Z,130.30
2022-12-23T14:56:28.626Z,139.18
2022-12-23T14:59:22.587Z,144.57
2022-12-23T15:01:55.733Z,150.90
2022-12-23T15:04:28.973Z,154.45
2022-12-23T15:07:11.006Z,154.32
2022-12-23T15:10:00.773Z,163.75
2022-12-23T15:12:33.150Z,162.57
2022-12-23T15:15:04.717Z,172.00
2022-12-23T15:17:36.883Z,174.48
2022-12-23T15:20:12.757Z,180.95
2022-12-23T15:22:41.261Z,165.57
2022-12-23T15:25:23.226Z,174.70
2022-12-23T15:27:53.487Z,167.90
2022-12-23T15:30:24.460Z,163.05
2022-12-23T15:33:00.530Z,173.50
2022-12-23T15:35:30.823Z,171.33
2022-12-23T15:37:58.654Z,172.50
2022-12-23T15:40:29.696Z,173.73
2022-12-23T15:42:56.936Z,179.37
2022-12-23T15:45:23.813Z,190.70
2022-12-23T15:50:19.181Z,176.80
2022-12-23T15:52:49.283Z,182.00
2022-12-23T15:55:42.225Z,176.93
2022-12-23T15:58:18.840Z,178.50
2022-12-23T16:00:58.061Z,174.35
2022-12-23T16:03:33.973Z,165.13
2022-12-23T16:06:08.363Z,154.87
2022-12-23T16:08:35.627Z,158.97
2022-12-23T16:11:15.386Z,163.87
2022-12-23T16:13:59.209Z,157.97
2022-12-23T16:16:41.820Z,158.33
2022-12-23T16:19:47.571Z,153.90
2022-12-23T16:22:34.551Z,155.83
2022-12-23T16:25:23.560Z,155.83
2022-12-23T16:27:57.190Z,155.37
2022-12-23T16:30:31.417Z,159.23
2022-12-23T16:33:02.345Z,150.80
2022-12-23T16:35:36.995Z,155.83
2022-12-23T16:38:16.361Z,159.73
2022-12-23T16:40:46.147Z,161.57
2022-12-23T16:43:12.994Z,157.90
2022-12-23T16:45:40.876Z,158.90
2022-12-23T16:48:25.587Z,159.50
2022-12-23T16:50:54.034Z,169.07
2022-12-23T16:53:21.492Z,164.77
2022-12-23T16:55:56.636Z,168.07
2022-12-23T16:58:27.556Z,153.47
2022-12-23T17:00:54.608Z,163.30
2022-12-23T17:03:21.761Z,164.07
2022-12-23T17:05:49.443Z,168.17
2022-12-23T17:08:16.880Z,167.47
2022-12-23T17:10:45.080Z,168.47
2022-12-23T17:13:14.469Z,162.90
2022-12-23T17:15:41.564Z,174.87
2022-12-23T17:18:17.551Z,174.77
2022-12-23T17:20:47.753Z,182.80
2022-12-23T17:23:30.168Z,194.87
2022-12-23T17:25:58.136Z,211.03
2022-12-23T17:28:31.270Z,234.33
2022-12-23T17:30:59.016Z,240.60
2022-12-23T17:33:37.239Z,235.87
2022-12-23T17:36:05.340Z,231.37
2022-12-23T17:38:32.655Z,238.63
2022-12-23T17:41:00.019Z,255.27
2022-12-23T17:43:27.929Z,265.53
2022-12-23T17:45:55.615Z,249.67
2022-12-23T17:48:26.646Z,250.13
2022-12-23T17:50:58.644Z,215.80
2022-12-23T17:53:25.957Z,238.23
2022-12-23T17:55:52.796Z,222.10
2022-12-23T17:58:20.526Z,218.53
2022-12-23T18:00:47.410Z,228.77
2022-12-23T18:03:23.701Z,220.47
2022-12-23T18:05:57.272Z,219.70
2022-12-23T18:08:28.672Z,235.73
2022-12-23T18:10:55.676Z,228.37
2022-12-23T18:13:22.851Z,249.63
2022-12-23T18:15:50.443Z,250.10
2022-12-23T18:18:27.498Z,256.17
2022-12-23T18:20:59.671Z,243.87
2022-12-23T18:23:29.414Z,236.73
2022-12-23T18:25:57.784Z,242.60
2022-12-23T18:28:25.393Z,221.83
2022-12-23T18:30:55.606Z,264.33
2022-12-23T18:33:24.307Z,254.80
2022-12-23T18:35:51.689Z,244.13
2022-12-23T18:38:18.781Z,241.77
2022-12-23T18:40:45.956Z,220.17
2022-12-23T18:43:24.174Z,212.67
2022-12-23T18:45:53.475Z,206.13
2022-12-23T18:48:21.794Z,233.17
2022-12-23T18:50:48.764Z,254.27
2022-12-23T18:53:23.674Z,260.93
2022-12-23T18:55:52.185Z,259.57
2022-12-23T18:58:20.055Z,267.33
2022-12-23T19:00:48.017Z,233.07
2022-12-23T19:03:27.462Z,236.47
2022-12-23T19:05:56.080Z,228.93
2022-12-23T19:08:27.637Z,226.60
2022-12-23T19:10:56.439Z,216.07
2022-12-23T19:13:23.629Z,209.87
2022-12-23T19:15:51.000Z,214.57
2022-12-23T19:18:19.841Z,204.17
2022-12-23T19:20:48.401Z,211.53
2022-12-23T19:23:15.999Z,205.03
2022-12-23T19:25:50.767Z,203.03
2022-12-23T19:28:21.916Z,214.17
2022-12-23T19:30:49.290Z,196.93
2022-12-23T19:33:16.396Z,190.27
2022-12-23T19:35:44.373Z,231.00
2022-12-23T19:38:12.433Z,235.37
2022-12-23T19:40:40.499Z,238.27
2022-12-23T19:43:07.844Z,244.73
2022-12-23T19:45:34.697Z,256.87
2022-12-23T19:48:01.624Z,267.37
2022-12-23T19:50:28.513Z,258.40
2022-12-23T19:52:56.706Z,252.13
2022-12-23T19:55:24.182Z,246.43
2022-12-23T19:57:52.323Z,230.17
2022-12-23T20:00:19.382Z,202.07
2022-12-23T20:02:46.422Z,268.73
2022-12-23T20:05:13.328Z,344.83
2022-12-23T20:07:40.183Z,360.30
2022-12-23T20:10:07.871Z,398.23
2022-12-23T20:12:34.868Z,482.10
2022-12-23T20:15:01.791Z,456.60
2022-12-23T20:17:28.722Z,377.87
2022-12-23T20:19:55.586Z,463.07
2022-12-23T20:22:22.511Z,491.73
2022-12-23T20:24:49.976Z,503.13
2022-12-23T20:27:19.143Z,533.13
2022-12-23T20:29:49.648Z,480.80
2022-12-23T20:32:16.504Z,356.17
2022-12-23T20:34:43.506Z,302.10
2022-12-23T20:37:11.795Z,303.67
2022-12-23T20:39:38.665Z,306.53
2022-12-23T20:42:05.546Z,296.00
2022-12-23T20:44:35.017Z,290.63
2022-12-23T20:47:06.064Z,267.30
2022-12-23T20:49:33.500Z,257.27
2022-12-23T20:52:01.654Z,253.30
2022-12-23T20:54:33.281Z,230.23
2022-12-23T20:57:02.760Z,262.23
2022-12-23T20:59:29.707Z,275.83
2022-12-23T21:01:59.784Z,350.10
2022-12-23T21:04:27.348Z,429.33
2022-12-23T21:06:54.717Z,379.00
2022-12-23T21:09:21.846Z,441.40
2022-12-23T21:11:49.248Z,398.60
2022-12-23T21:14:16.798Z,378.77
2022-12-23T21:16:44.863Z,385.63
2022-12-23T21:19:30.225Z,365.47
2022-12-23T21:21:58.439Z,321.77
2022-12-23T21:24:25.839Z,309.37
2022-12-23T21:26:57.128Z,303.17
2022-12-23T21:29:25.918Z,268.03
2022-12-23T21:31:53.039Z,253.27
2022-12-23T21:34:20.240Z,268.20
2022-12-23T21:36:47.656Z,252.07
2022-12-23T21:39:18.142Z,218.93
2022-12-23T21:41:46.122Z,207.00
2022-12-23T21:44:16.876Z,204.97
2022-12-23T21:46:46.235Z,208.80
2022-12-23T21:49:13.143Z,207.93
2022-12-23T21:51:41.578Z,199.80
2022-12-23T21:54:10.695Z,194.17
2022-12-23T21:56:39.106Z,198.53
2022-12-23T21:59:10.974Z,185.53
2022-12-23T22:01:38.635Z,198.13
2022-12-23T22:04:06.248Z,201.07
2022-12-23T22:06:39.423Z,221.67
2022-12-23T22:09:08.019Z,234.93
2022-12-23T22:11:36.692Z,250.57
2022-12-23T22:14:06.853Z,300.87
2022-12-23T22:16:35.565Z,250.57
2022-12-23T22:19:04.099Z,273.87
2022-12-23T22:21:33.235Z,288.37
2022-12-23T22:24:00.376Z,292.70
2022-12-23T22:26:31.156Z,308.20
2022-12-23T22:29:01.497Z,287.87
2022-12-23T22:31:34.706Z,253.07
2022-12-23T22:34:04.226Z,267.17
2022-12-23T22:36:32.430Z,259.87
2022-12-23T22:39:01.692Z,236.67
2022-12-23T22:41:30.380Z,239.27
2022-12-23T22:43:59.240Z,245.97
2022-12-23T22:46:26.864Z,276.77
2022-12-23T22:48:54.860Z,266.10
2022-12-23T22:51:28.965Z,281.77
2022-12-23T22:53:57.498Z,282.07
2022-12-23T22:56:25.563Z,303.50
2022-12-23T22:58:53.877Z,260.87
2022-12-23T23:01:25.247Z,284.37
2022-12-23T23:03:57.512Z,301.03
2022-12-23T23:06:30.815Z,286.63
2022-12-23T23:08:58.244Z,299.00
2022-12-23T23:11:27.349Z,316.00
2022-12-23T23:13:55.935Z,269.77
2022-12-23T23:16:24.191Z,241.43
2022-12-23T23:18:52.697Z,212.70
2022-12-23T23:21:20.829Z,193.17
2022-12-23T23:23:48.076Z,183.30
2022-12-23T23:26:15.801Z,176.40
2022-12-23T23:28:43.963Z,171.80
2022-12-23T23:33:59.136Z,169.18
2022-12-23T23:36:26.207Z,160.10
2022-12-23T23:38:53.436Z,150.03
2022-12-23T23:41:23.636Z,132.83
2022-12-23T23:43:51.630Z,132.70
2022-12-23T23:46:19.262Z,131.47
2022-12-23T23:48:46.752Z,130.97
2022-12-23T23:51:13.694Z,133.50
2022-12-23T23:53:40.708Z,129.50
2022-12-23T23:56:08.838Z,128.00
2022-12-23T23:58:37.247Z,126.93
